sensor_id;sensor_type;location;lat;lon;timestamp;pressure;altitude;pressure_sealevel;temperature;humidity
53089;BME280;38968;47.696;17.540;2022-12-07T00:03:55;10025500.0;;;7.13;66.57227
53089;BME280;38968;47.696;17.540;2022-12-07T00:08:53;10025500.0;;;7.11;65.75195
53089;BME280;38968;47.696;17.540;2022-12-07T00:13:55;10025240.0;;;7.16;66.67871
53089;BME280;38968;47.696;17.540;2022-12-07T00:18:54;10025410.0;;;7.17;66.66895
53089;BME280;38968;47.696;17.540;2022-12-07T00:23:54;10024020.0;;;7.15;66.67773
53089;BME280;38968;47.696;17.540;2022-12-07T00:28:55;10024020.0;;;7;67.11914
53089;BME280;38968;47.696;17.540;2022-12-07T00:33:54;10024200.0;;;7.07;66.99414
53089;BME280;38968;47.696;17.540;2022-12-07T00:38:55;10023500.0;;;6.95;67.55273
53089;BME280;38968;47.696;17.540;2022-12-07T00:43:54;10022900.0;;;6.98;67.43262
53089;BME280;38968;47.696;17.540;2022-12-07T00:48:54;10023840.0;;;6.82;67.52148
53089;BME280;38968;47.696;17.540;2022-12-07T00:53:54;10023150.0;;;6.72;68.26465
53089;BME280;38968;47.696;17.540;2022-12-07T00:58:55;10024010.0;;;6.66;68.50391
53089;BME280;38968;47.696;17.540;2022-12-07T01:03:54;10024100.0;;;6.82;68.28027
53089;BME280;38968;47.696;17.540;2022-12-07T01:08:54;10023420.0;;;6.96;67.81543
53089;BME280;38968;47.696;17.540;2022-12-07T01:13:55;10024190.0;;;6.88;68.11035
53089;BME280;38968;47.696;17.540;2022-12-07T01:18:55;10025580.0;;;6.93;67.8916
53089;BME280;38968;47.696;17.540;2022-12-07T01:23:54;10023940.0;;;7.01;67.95801
53089;BME280;38968;47.696;17.540;2022-12-07T01:28:54;10023760.0;;;6.86;68.10547
53089;BME280;38968;47.696;17.540;2022-12-07T01:33:55;10024620.0;;;6.69;68.55664
53089;BME280;38968;47.696;17.540;2022-12-07T01:38:59;10023420.0;;;7.01;68.20801
53089;BME280;38968;47.696;17.540;2022-12-07T01:44:22;10024020.0;;;7.09;67.88184
53089;BME280;38968;47.696;17.540;2022-12-07T01:48:53;10024460.0;;;7.11;67.81641
53089;BME280;38968;47.696;17.540;2022-12-07T01:53:54;10023940.0;;;7.27;67.19434
53089;BME280;38968;47.696;17.540;2022-12-07T01:58:55;10023330.0;;;7.18;67.0459
53089;BME280;38968;47.696;17.540;2022-12-07T02:03:54;10022640.0;;;7.11;67.50977
53089;BME280;38968;47.696;17.540;2022-12-07T02:08:54;10022990.0;;;7.12;67.44336
53089;BME280;38968;47.696;17.540;2022-12-07T02:13:54;10023070.0;;;7.05;67.5459
53089;BME280;38968;47.696;17.540;2022-12-07T02:33:57;10020810.0;;;6.62;69.6875
53089;BME280;38968;47.696;17.540;2022-12-07T02:39:08;10021490.0;;;6.48;70.05078
53089;BME280;38968;47.696;17.540;2022-12-07T02:44:05;10021490.0;;;6.45;70.82617
53089;BME280;38968;47.696;17.540;2022-12-07T02:48:54;10019860.0;;;6.71;69.76855
53089;BME280;38968;47.696;17.540;2022-12-07T02:53:54;10020630.0;;;6.49;70.69629
53089;BME280;38968;47.696;17.540;2022-12-07T03:04:08;10021060.0;;;6.52;70.74609
53089;BME280;38968;47.696;17.540;2022-12-07T03:09:13;10020370.0;;;6.35;72.00879
53089;BME280;38968;47.696;17.540;2022-12-07T03:14:08;10020370.0;;;6.6;71.22266
53089;BME280;38968;47.696;17.540;2022-12-07T03:19:08;10021070.0;;;6.64;71.00391
53089;BME280;38968;47.696;17.540;2022-12-07T03:23:55;10020980.0;;;6.63;71.03711
53089;BME280;38968;47.696;17.540;2022-12-07T03:28:55;10020720.0;;;6.63;70.90137
53089;BME280;38968;47.696;17.540;2022-12-07T03:39:07;10021320.0;;;6.53;71.4502
53089;BME280;38968;47.696;17.540;2022-12-07T03:43:54;10021140.0;;;6.29;72.16797
53089;BME280;38968;47.696;17.540;2022-12-07T03:54:02;10021310.0;;;6.3;72.47461
53089;BME280;38968;47.696;17.540;2022-12-07T03:58:54;10021750.0;;;6.34;72.5166
53089;BME280;38968;47.696;17.540;2022-12-07T04:03:54;10021300.0;;;6.06;73.70996
53089;BME280;38968;47.696;17.540;2022-12-07T04:08:53;10021480.0;;;6.28;73.625
53089;BME280;38968;47.696;17.540;2022-12-07T04:13:53;10020800.0;;;6.35;73.38672
53089;BME280;38968;47.696;17.540;2022-12-07T04:18:53;10021400.0;;;6.23;73.20898
53089;BME280;38968;47.696;17.540;2022-12-07T04:23:54;10021920.0;;;6.45;72.97363
53089;BME280;38968;47.696;17.540;2022-12-07T04:28:54;10021320.0;;;6.47;72.97754
53089;BME280;38968;47.696;17.540;2022-12-07T04:33:54;10022270.0;;;6.39;73.17871
53089;BME280;38968;47.696;17.540;2022-12-07T04:38:54;10022180.0;;;6.38;73.22266
53089;BME280;38968;47.696;17.540;2022-12-07T04:43:58;10023200.0;;;6;74.61523
53089;BME280;38968;47.696;17.540;2022-12-07T04:48:54;10022530.0;;;6.43;73.57129
53089;BME280;38968;47.696;17.540;2022-12-07T04:53:54;10023470.0;;;6.15;73.96484
53089;BME280;38968;47.696;17.540;2022-12-07T04:58:54;10022010.0;;;6.31;74.25
53089;BME280;38968;47.696;17.540;2022-12-07T05:03:53;10023130.0;;;6.29;73.77344
53089;BME280;38968;47.696;17.540;2022-12-07T05:08:54;10022620.0;;;6.47;73.71289
53089;BME280;38968;47.696;17.540;2022-12-07T05:13:53;10022710.0;;;6.55;73.12695
53089;BME280;38968;47.696;17.540;2022-12-07T05:18:54;10023040.0;;;6.22;74.25781
53089;BME280;38968;47.696;17.540;2022-12-07T05:23:54;10022790.0;;;6.31;73.99023
53089;BME280;38968;47.696;17.540;2022-12-07T05:28:55;10023570.0;;;6.4;73.25977
53089;BME280;38968;47.696;17.540;2022-12-07T05:33:53;10022530.0;;;6.34;73.60156
53089;BME280;38968;47.696;17.540;2022-12-07T05:38:54;10022860.0;;;6.12;73.94629
53089;BME280;38968;47.696;17.540;2022-12-07T05:43:54;10022960.0;;;6.43;73.38867
53089;BME280;38968;47.696;17.540;2022-12-07T05:48:54;10023560.0;;;6.21;74.23242
53089;BME280;38968;47.696;17.540;2022-12-07T05:53:53;10023380.0;;;6.03;75.01465
53089;BME280;38968;47.696;17.540;2022-12-07T05:58:54;10023220.0;;;6.23;74.04492
53089;BME280;38968;47.696;17.540;2022-12-07T06:03:54;10023550.0;;;6.1;74.75586
53089;BME280;38968;47.696;17.540;2022-12-07T06:08:53;10022690.0;;;6.2;74.36816
53089;BME280;38968;47.696;17.540;2022-12-07T06:13:54;10024240.0;;;6.08;74.5498
53089;BME280;38968;47.696;17.540;2022-12-07T06:18:53;10023290.0;;;6.16;74.77832
53089;BME280;38968;47.696;17.540;2022-12-07T06:23:54;10022440.0;;;6.29;73.88574
53089;BME280;38968;47.696;17.540;2022-12-07T06:28:53;10023230.0;;;6.51;74.04688
53089;BME280;38968;47.696;17.540;2022-12-07T06:34:01;10024780.0;;;6.32;73.34766
53089;BME280;38968;47.696;17.540;2022-12-07T06:38:54;10023220.0;;;6.38;73.85547
53089;BME280;38968;47.696;17.540;2022-12-07T06:43:54;10023490.0;;;6.48;73.4541
53089;BME280;38968;47.696;17.540;2022-12-07T06:48:53;10024180.0;;;6.41;73.45313
53089;BME280;38968;47.696;17.540;2022-12-07T06:53:54;10023570.0;;;6.54;72.77441
53089;BME280;38968;47.696;17.540;2022-12-07T06:58:54;10024790.0;;;6.58;72.47656
53089;BME280;38968;47.696;17.540;2022-12-07T07:03:54;10024700.0;;;6.68;72.74219
53089;BME280;38968;47.696;17.540;2022-12-07T07:08:53;10024970.0;;;6.67;72.53711
53089;BME280;38968;47.696;17.540;2022-12-07T07:13:54;10024540.0;;;6.83;71.8623
53089;BME280;38968;47.696;17.540;2022-12-07T07:18:54;10024370.0;;;6.97;71.93066
53089;BME280;38968;47.696;17.540;2022-12-07T07:23:53;10024540.0;;;7.1;70.92188
53089;BME280;38968;47.696;17.540;2022-12-07T07:28:53;10025840.0;;;7.06;70.19922
53089;BME280;38968;47.696;17.540;2022-12-07T07:33:54;10025930.0;;;6.97;71.01367
53089;BME280;38968;47.696;17.540;2022-12-07T07:38:53;10026700.0;;;6.77;70.75391
53089;BME280;38968;47.696;17.540;2022-12-07T07:43:54;10026180.0;;;6.79;71.67188
53089;BME280;38968;47.696;17.540;2022-12-07T07:48:54;10026100.0;;;6.86;71.56055
53089;BME280;38968;47.696;17.540;2022-12-07T07:53:54;10025150.0;;;7.11;71.48828
53089;BME280;38968;47.696;17.540;2022-12-07T07:58:54;10025840.0;;;7.12;70.33398
53089;BME280;38968;47.696;17.540;2022-12-07T08:03:53;10027830.0;;;6.82;70.96582
53089;BME280;38968;47.696;17.540;2022-12-07T08:08:54;10027390.0;;;6.8;71.60742
53089;BME280;38968;47.696;17.540;2022-12-07T08:13:53;10027730.0;;;6.5;72.20215
53089;BME280;38968;47.696;17.540;2022-12-07T08:18:53;10026970.0;;;7.02;72.39063
53089;BME280;38968;47.696;17.540;2022-12-07T08:23:54;10027660.0;;;6.8;71.65234
53089;BME280;38968;47.696;17.540;2022-12-07T08:28:54;10027490.0;;;7.06;71.78711
53089;BME280;38968;47.696;17.540;2022-12-07T08:33:54;10027060.0;;;7.28;71.3252
53089;BME280;38968;47.696;17.540;2022-12-07T08:38:54;10028090.0;;;7.01;71.27832
53089;BME280;38968;47.696;17.540;2022-12-07T08:43:53;10028360.0;;;7.08;70.89453
53089;BME280;38968;47.696;17.540;2022-12-07T08:49:04;10029570.0;;;7.29;70.68066
53089;BME280;38968;47.696;17.540;2022-12-07T08:53:54;10029040.0;;;6.82;72.97949
53089;BME280;38968;47.696;17.540;2022-12-07T08:58:54;10028710.0;;;7.29;72.34473
53089;BME280;38968;47.696;17.540;2022-12-07T09:03:54;10026890.0;;;7.35;71.33594
53089;BME280;38968;47.696;17.540;2022-12-07T09:08:55;10026540.0;;;7.66;71.3418
53089;BME280;38968;47.696;17.540;2022-12-07T09:13:54;10027580.0;;;7.28;71.00781
53089;BME280;38968;47.696;17.540;2022-12-07T09:18:54;10027670.0;;;7.45;70.75293
53089;BME280;38968;47.696;17.540;2022-12-07T09:23:54;10026370.0;;;7.9;70.83496
53089;BME280;38968;47.696;17.540;2022-12-07T09:28:54;10026980.0;;;7.67;69.81152
53089;BME280;38968;47.696;17.540;2022-12-07T09:33:59;10026710.0;;;8.02;69.6416
53089;BME280;38968;47.696;17.540;2022-12-07T09:38:54;10027760.0;;;7.9;69.86035
53089;BME280;38968;47.696;17.540;2022-12-07T09:44:04;10027320.0;;;8;69.7959
53089;BME280;38968;47.696;17.540;2022-12-07T09:48:54;10027140.0;;;8.59;68.50195
53089;BME280;38968;47.696;17.540;2022-12-07T09:53:55;10027140.0;;;8.62;67.9502
53089;BME280;38968;47.696;17.540;2022-12-07T09:58:57;10026340.0;;;8.92;67.83789
53089;BME280;38968;47.696;17.540;2022-12-07T10:03:55;10027460.0;;;9;65.87891
53089;BME280;38968;47.696;17.540;2022-12-07T10:08:54;10026970.0;;;8.27;67.63477
53089;BME280;38968;47.696;17.540;2022-12-07T10:13:54;10027050.0;;;8.56;67.44141
53089;BME280;38968;47.696;17.540;2022-12-07T10:18:54;10025580.0;;;8.46;67.16309
53089;BME280;38968;47.696;17.540;2022-12-07T10:24:04;10024100.0;;;8.42;66.45215
53089;BME280;38968;47.696;17.540;2022-12-07T10:28:54;10024360.0;;;8.61;67.20801
53089;BME280;38968;47.696;17.540;2022-12-07T10:33:59;10024350.0;;;8.8;66.80664
53089;BME280;38968;47.696;17.540;2022-12-07T10:39:01;10024170.0;;;8.78;65.62891
53089;BME280;38968;47.696;17.540;2022-12-07T10:43:55;10024370.0;;;8.22;67.58105
53089;BME280;38968;47.696;17.540;2022-12-07T10:54:00;10022470.0;;;9.54;64.00879
53089;BME280;38968;47.696;17.540;2022-12-07T10:59:09;10021790.0;;;9.3;62.43262
53089;BME280;38968;47.696;17.540;2022-12-07T11:04:29;10021560.0;;;8.95;64.24121
53089;BME280;38968;47.696;17.540;2022-12-07T11:19:11;10019390.0;;;8.93;63.65625
53089;BME280;38968;47.696;17.540;2022-12-07T11:24:10;10019730.0;;;8.96;63.02344
53089;BME280;38968;47.696;17.540;2022-12-07T11:33:57;10019010.0;;;9.38;61.31348
53089;BME280;38968;47.696;17.540;2022-12-07T11:38:55;10018990.0;;;9.5;62.13086
53089;BME280;38968;47.696;17.540;2022-12-07T11:44:04;10018570.0;;;9.39;61.9082
53089;BME280;38968;47.696;17.540;2022-12-07T11:49:07;10017780.0;;;9.46;61.49805
53089;BME280;38968;47.696;17.540;2022-12-07T11:53:59;10017670.0;;;9.69;60.75
53089;BME280;38968;47.696;17.540;2022-12-07T11:59:02;10017240.0;;;9.61;59.38086
53089;BME280;38968;47.696;17.540;2022-12-07T12:03:56;10016530.0;;;9.77;58.10938
53089;BME280;38968;47.696;17.540;2022-12-07T12:24:04;10013980.0;;;10.02;52.7002
53089;BME280;38968;47.696;17.540;2022-12-07T12:28:56;10013980.0;;;10.02;49.05078
53089;BME280;38968;47.696;17.540;2022-12-07T12:33:55;10014160.0;;;10;48.30273
53089;BME280;38968;47.696;17.540;2022-12-07T12:43:53;10013890.0;;;10.05;47.42285
53089;BME280;38968;47.696;17.540;2022-12-07T12:48:54;10013090.0;;;10.2;47.48535
53089;BME280;38968;47.696;17.540;2022-12-07T12:54:03;10013020.0;;;10.03;46.51367
53089;BME280;38968;47.696;17.540;2022-12-07T13:03:55;10014840.0;;;10.12;46.03906
53089;BME280;38968;47.696;17.540;2022-12-07T13:08:55;10014380.0;;;10.37;46.72168
53089;BME280;38968;47.696;17.540;2022-12-07T13:14:34;10014390.0;;;10.18;46.67871
53089;BME280;38968;47.696;17.540;2022-12-07T13:18:53;10014010.0;;;10.52;47.12891
53089;BME280;38968;47.696;17.540;2022-12-07T13:23:55;10014440.0;;;12.91;42.86328
53089;BME280;38968;47.696;17.540;2022-12-07T13:29:13;10014160.0;;;13.68;39.79492
53089;BME280;38968;47.696;17.540;2022-12-07T13:33:54;10014600.0;;;14.02;39.29004
53089;BME280;38968;47.696;17.540;2022-12-07T13:38:58;10015370.0;;;13.74;38.8125
53089;BME280;38968;47.696;17.540;2022-12-07T13:44:13;10015180.0;;;13.8;39.16699
53089;BME280;38968;47.696;17.540;2022-12-07T13:48:53;10017250.0;;;12.89;39.74512
53089;BME280;38968;47.696;17.540;2022-12-07T13:54:00;10017040.0;;;12.19;40.83887
53089;BME280;38968;47.696;17.540;2022-12-07T13:58:54;10016680.0;;;11.29;42.57813
53089;BME280;38968;47.696;17.540;2022-12-07T14:03:54;10017820.0;;;10.69;44.22461
53089;BME280;38968;47.696;17.540;2022-12-07T14:09:19;10018060.0;;;10.85;43.74512
53089;BME280;38968;47.696;17.540;2022-12-07T14:13:58;10017880.0;;;10.14;45.00781
53089;BME280;38968;47.696;17.540;2022-12-07T14:18:54;10018620.0;;;10.56;44.29102
53089;BME280;38968;47.696;17.540;2022-12-07T14:24:16;10018050.0;;;10.18;44.78223
53089;BME280;38968;47.696;17.540;2022-12-07T14:29:18;10016860.0;;;9.99;45.42871
53089;BME280;38968;47.696;17.540;2022-12-07T14:33:54;10016620.0;;;9.79;46.03906
53089;BME280;38968;47.696;17.540;2022-12-07T14:38:53;10016910.0;;;9.49;46.81152
53089;BME280;38968;47.696;17.540;2022-12-07T14:43:56;10019380.0;;;8.99;47.68555
53089;BME280;38968;47.696;17.540;2022-12-07T14:48:53;10019290.0;;;9.03;47.56445
53089;BME280;38968;47.696;17.540;2022-12-07T14:53:54;10018410.0;;;9.16;46.3291
53089;BME280;38968;47.696;17.540;2022-12-07T14:58:54;10018510.0;;;9.09;46.29785
53089;BME280;38968;47.696;17.540;2022-12-07T15:03:54;10019230.0;;;8.6;47.80176
53089;BME280;38968;47.696;17.540;2022-12-07T15:08:53;10020370.0;;;8.14;49.60449
53089;BME280;38968;47.696;17.540;2022-12-07T15:13:53;10021410.0;;;8.23;50.86133
53089;BME280;38968;47.696;17.540;2022-12-07T15:18:54;10021850.0;;;8.09;51.4834
53089;BME280;38968;47.696;17.540;2022-12-07T15:23:54;10022030.0;;;8.09;51.79102
53089;BME280;38968;47.696;17.540;2022-12-07T15:28:54;10022290.0;;;7.98;52.58887
53089;BME280;38968;47.696;17.540;2022-12-07T15:33:54;10023070.0;;;7.84;54.38672
53089;BME280;38968;47.696;17.540;2022-12-07T15:38:54;10022730.0;;;7.19;58.0498
53089;BME280;38968;47.696;17.540;2022-12-07T15:43:53;10022470.0;;;7.33;57.02051
53089;BME280;38968;47.696;17.540;2022-12-07T15:48:54;10022470.0;;;7.36;57.46875
53089;BME280;38968;47.696;17.540;2022-12-07T15:53:54;10023160.0;;;7.3;57.3916
53089;BME280;38968;47.696;17.540;2022-12-07T15:58:53;10023160.0;;;7.25;59.69434
53089;BME280;38968;47.696;17.540;2022-12-07T16:03:54;10021950.0;;;7.36;60.56348
53089;BME280;38968;47.696;17.540;2022-12-07T16:08:54;10021340.0;;;7.54;60.50879
53089;BME280;38968;47.696;17.540;2022-12-07T16:13:53;10021690.0;;;7.18;61.25391
53089;BME280;38968;47.696;17.540;2022-12-07T16:18:54;10021080.0;;;7.13;61.25879
53089;BME280;38968;47.696;17.540;2022-12-07T16:23:56;10020650.0;;;7.24;61.81934
53089;BME280;38968;47.696;17.540;2022-12-07T16:28:54;10020300.0;;;7.2;60.87109
53089;BME280;38968;47.696;17.540;2022-12-07T16:33:55;10021340.0;;;7.02;63.82129
53089;BME280;38968;47.696;17.540;2022-12-07T16:38:53;10022290.0;;;7.11;63.81055
53089;BME280;38968;47.696;17.540;2022-12-07T16:43:54;10022720.0;;;7.04;64.1875
53089;BME280;38968;47.696;17.540;2022-12-07T16:48:55;10022460.0;;;7.21;63.97363
53089;BME280;38968;47.696;17.540;2022-12-07T16:53:54;10023500.0;;;6.77;65.35938
53089;BME280;38968;47.696;17.540;2022-12-07T16:58:53;10022370.0;;;6.73;67.12207
53089;BME280;38968;47.696;17.540;2022-12-07T17:03:54;10022810.0;;;6.88;66.44238
53089;BME280;38968;47.696;17.540;2022-12-07T17:08:54;10022110.0;;;6.75;65.24316
53089;BME280;38968;47.696;17.540;2022-12-07T17:13:54;10022710.0;;;6.66;65.13867
53089;BME280;38968;47.696;17.540;2022-12-07T17:18:54;10022450.0;;;6.66;64.83301
53089;BME280;38968;47.696;17.540;2022-12-07T17:23:54;10022710.0;;;6.6;65.08398
53089;BME280;38968;47.696;17.540;2022-12-07T17:28:54;10022980.0;;;6.71;65.70117
53089;BME280;38968;47.696;17.540;2022-12-07T17:33:54;10023400.0;;;6.62;66.58398
53089;BME280;38968;47.696;17.540;2022-12-07T17:38:54;10023400.0;;;6.52;67.64453
53089;BME280;38968;47.696;17.540;2022-12-07T17:43:54;10023150.0;;;6.68;67.29688
53089;BME280;38968;47.696;17.540;2022-12-07T17:48:54;10024270.0;;;6.72;67.36035
53089;BME280;38968;47.696;17.540;2022-12-07T17:53:54;10025310.0;;;6.67;67.47656
53089;BME280;38968;47.696;17.540;2022-12-07T17:58:54;10025820.0;;;6.41;67.88965
53089;BME280;38968;47.696;17.540;2022-12-07T18:03:54;10026000.0;;;6.49;68.22852
53089;BME280;38968;47.696;17.540;2022-12-07T18:08:54;10026950.0;;;6.53;68.22461
53089;BME280;38968;47.696;17.540;2022-12-07T18:13:55;10026780.0;;;6.5;68.21973
53089;BME280;38968;47.696;17.540;2022-12-07T18:18:54;10026520.0;;;6.5;67.88086
53089;BME280;38968;47.696;17.540;2022-12-07T18:23:55;10026690.0;;;6.59;68.08691
53089;BME280;38968;47.696;17.540;2022-12-07T18:28:54;10025730.0;;;6.32;66.07422
53089;BME280;38968;47.696;17.540;2022-12-07T18:33:55;10025900.0;;;6.31;66.28809
53089;BME280;38968;47.696;17.540;2022-12-07T18:38:54;10026680.0;;;6.25;66.65137
53089;BME280;38968;47.696;17.540;2022-12-07T18:43:54;10026230.0;;;5.98;68.27344
53089;BME280;38968;47.696;17.540;2022-12-07T18:48:54;10025890.0;;;6.14;68.50195
53089;BME280;38968;47.696;17.540;2022-12-07T18:53:57;10026240.0;;;6.15;68.99023
53089;BME280;38968;47.696;17.540;2022-12-07T18:58:56;10026340.0;;;6.48;68.60059
53089;BME280;38968;47.696;17.540;2022-12-07T19:03:55;10026420.0;;;6.33;68.16992
53089;BME280;38968;47.696;17.540;2022-12-07T19:08:54;10025630.0;;;6.05;67.37988
53089;BME280;38968;47.696;17.540;2022-12-07T19:13:54;10025180.0;;;5.87;68.5625
53089;BME280;38968;47.696;17.540;2022-12-07T19:18:54;10025260.0;;;5.82;68.32617
53089;BME280;38968;47.696;17.540;2022-12-07T19:23:56;10025330.0;;;5.56;67.92383
53089;BME280;38968;47.696;17.540;2022-12-07T19:28:54;10025990.0;;;5.22;68.55957
53089;BME280;38968;47.696;17.540;2022-12-07T19:33:55;10025890.0;;;5.14;68.78418
53089;BME280;38968;47.696;17.540;2022-12-07T19:38:54;10027100.0;;;5.14;68.99707
53089;BME280;38968;47.696;17.540;2022-12-07T19:43:56;10026400.0;;;4.97;69.66992
53089;BME280;38968;47.696;17.540;2022-12-07T19:48:54;10027530.0;;;5.04;69.625
53089;BME280;38968;47.696;17.540;2022-12-07T19:53:58;10029160.0;;;5;69.61719
53089;BME280;38968;47.696;17.540;2022-12-07T19:58:55;10027950.0;;;4.96;69.78125
53089;BME280;38968;47.696;17.540;2022-12-07T20:03:54;10028370.0;;;4.83;69.95215
53089;BME280;38968;47.696;17.540;2022-12-07T20:08:55;10029140.0;;;4.85;69.875
53089;BME280;38968;47.696;17.540;2022-12-07T20:13:54;10028630.0;;;4.88;70.77148
53089;BME280;38968;47.696;17.540;2022-12-07T20:18:54;10028520.0;;;4.7;71.06934
53089;BME280;38968;47.696;17.540;2022-12-07T20:23:54;10027940.0;;;4.88;70.94238
53089;BME280;38968;47.696;17.540;2022-12-07T20:28:54;10028370.0;;;4.85;70.85547
53089;BME280;38968;47.696;17.540;2022-12-07T20:33:56;10028300.0;;;5.02;70.92969
53089;BME280;38968;47.696;17.540;2022-12-07T20:38:54;10028230.0;;;5.14;70.40918
53089;BME280;38968;47.696;17.540;2022-12-07T20:43:54;10027540.0;;;5.21;70.375
53089;BME280;38968;47.696;17.540;2022-12-07T20:48:56;10027470.0;;;5.32;70.09961
53089;BME280;38968;47.696;17.540;2022-12-07T20:53:55;10027890.0;;;5.27;69.2666
53089;BME280;38968;47.696;17.540;2022-12-07T20:58:55;10027560.0;;;5.38;69.50977
53089;BME280;38968;47.696;17.540;2022-12-07T21:03:55;10027560.0;;;5.44;69.13574
53089;BME280;38968;47.696;17.540;2022-12-07T21:08:56;10027920.0;;;5.52;69.30664
53089;BME280;38968;47.696;17.540;2022-12-07T21:13:53;10027310.0;;;5.53;68.93652
53089;BME280;38968;47.696;17.540;2022-12-07T21:18:55;10028280.0;;;5.69;69.3457
53089;BME280;38968;47.696;17.540;2022-12-07T21:23:54;10028270.0;;;5.61;68.79297
53089;BME280;38968;47.696;17.540;2022-12-07T21:28:55;10027070.0;;;5.7;68.79395
53089;BME280;38968;47.696;17.540;2022-12-07T21:33:53;10027600.0;;;5.89;68.65527
53089;BME280;38968;47.696;17.540;2022-12-07T21:38:54;10028290.0;;;5.89;68.47266
53089;BME280;38968;47.696;17.540;2022-12-07T21:43:54;10027330.0;;;5.74;69.12891
53089;BME280;38968;47.696;17.540;2022-12-07T21:48:55;10027680.0;;;5.79;69.36133
53089;BME280;38968;47.696;17.540;2022-12-07T21:53:55;10027260.0;;;5.9;69.49316
53089;BME280;38968;47.696;17.540;2022-12-07T21:58:57;10027160.0;;;5.78;69.05566
53089;BME280;38968;47.696;17.540;2022-12-07T22:03:53;10026900.0;;;5.72;69.61035
53089;BME280;38968;47.696;17.540;2022-12-07T22:08:55;10027260.0;;;5.92;69.58691
53089;BME280;38968;47.696;17.540;2022-12-07T22:13:53;10026730.0;;;5.84;69.7207
53089;BME280;38968;47.696;17.540;2022-12-07T22:18:54;10027610.0;;;5.96;69.64844
53089;BME280;38968;47.696;17.540;2022-12-07T22:23:53;10027010.0;;;5.94;69.3291
53089;BME280;38968;47.696;17.540;2022-12-07T22:28:54;10027270.0;;;6.09;69.53418
53089;BME280;38968;47.696;17.540;2022-12-07T22:33:54;10026500.0;;;6.24;69.19629
53089;BME280;38968;47.696;17.540;2022-12-07T22:38:53;10026410.0;;;6.18;69.27734
53089;BME280;38968;47.696;17.540;2022-12-07T22:43:54;10027100.0;;;6.11;69.32227
53089;BME280;38968;47.696;17.540;2022-12-07T22:48:53;10026850.0;;;6.22;68.94336
53089;BME280;38968;47.696;17.540;2022-12-07T22:53:54;10027270.0;;;6.06;69.26855
53089;BME280;38968;47.696;17.540;2022-12-07T22:58:54;10025810.0;;;6.19;69.32422
53089;BME280;38968;47.696;17.540;2022-12-07T23:03:54;10025440.0;;;5.9;69.88867
53089;BME280;38968;47.696;17.540;2022-12-07T23:08:55;10024930.0;;;5.98;70.16211
53089;BME280;38968;47.696;17.540;2022-12-07T23:13:53;10025020.0;;;5.94;70.1543
53089;BME280;38968;47.696;17.540;2022-12-07T23:18:54;10024070.0;;;6.08;69.82715
53089;BME280;38968;47.696;17.540;2022-12-07T23:23:53;10023210.0;;;6.19;69.22168
53089;BME280;38968;47.696;17.540;2022-12-07T23:28:54;10022690.0;;;6.22;69.14746
53089;BME280;38968;47.696;17.540;2022-12-07T23:33:54;10023300.0;;;6.22;69.08105
53089;BME280;38968;47.696;17.540;2022-12-07T23:38:55;10022700.0;;;6.26;69.35938
53089;BME280;38968;47.696;17.540;2022-12-07T23:43:55;10023470.0;;;6.26;68.97461
53089;BME280;38968;47.696;17.540;2022-12-07T23:48:55;10023550.0;;;6.13;69.20215
53089;BME280;38968;47.696;17.540;2022-12-07T23:53:54;10023200.0;;;5.97;69.65039
53089;BME280;38968;47.696;17.540;2022-12-07T23:58:55;10022670.0;;;5.88;70.18945
